Time;durP1;ratioP1;P1;durP2;ratioP2;P2;SDS_P1;SDS_P2;PMS_P1;PMS_P2;Temp;Humidity;BMP_temperature;BMP_pressure;BME280_temperature;BME280_humidity;BME280_pressure;Samples;Min_cycle;Max_cycle;Signal;HPM_P1;HPM_P2
2023/04/19 00:02:21;;;;;;;7.47;5.80;;;;;;;;;;5057408;28;20021;-78
2023/04/19 00:04:47;;;;;;;8.00;5.47;;;;;;;;;;5053339;28;20033;-78
2023/04/19 00:07:13;;;;;;;7.63;5.67;;;;;;;;;;5072860;28;20025;-78
2023/04/19 00:09:39;;;;;;;9.27;5.17;;;;;;;;;;5059510;28;20028;-77
2023/04/19 00:12:05;;;;;;;7.13;5.30;;;;;;;;;;5075061;28;20037;-78
2023/04/19 00:14:31;;;;;;;8.13;4.93;;;;;;;;;;5073367;28;20045;-77
2023/04/19 00:16:57;;;;;;;7.50;5.03;;;;;;;;;;5054468;28;20025;-80
2023/04/19 00:19:23;;;;;;;8.30;5.70;;;;;;;;;;5059010;28;20039;-77
2023/04/19 00:21:49;;;;;;;7.47;4.60;;;;;;;;;;5071655;28;20036;-77
2023/04/19 00:24:15;;;;;;;8.50;5.13;;;;;;;;;;5072269;28;20028;-79
2023/04/19 00:26:41;;;;;;;6.80;5.03;;;;;;;;;;5052548;28;20040;-77
2023/04/19 00:29:08;;;;;;;6.27;5.20;;;;;;;;;;5074042;28;20013;-77
2023/04/19 00:31:34;;;;;;;6.73;5.10;;;;;;;;;;5049120;28;20077;-77
2023/04/19 00:34:00;;;;;;;7.83;5.47;;;;;;;;;;5055265;28;20039;-78
2023/04/19 00:36:26;;;;;;;8.70;6.67;;;;;;;;;;5054410;28;20025;-78
2023/04/19 00:38:52;;;;;;;10.20;7.33;;;;;;;;;;5073253;28;20020;-77
2023/04/19 00:41:18;;;;;;;9.50;7.43;;;;;;;;;;5072853;28;20033;-77
2023/04/19 00:43:44;;;;;;;8.97;7.50;;;;;;;;;;5051258;28;20028;-78
2023/04/19 00:46:10;;;;;;;9.63;8.20;;;;;;;;;;5051113;28;20036;-77
2023/04/19 00:48:37;;;;;;;11.37;9.00;;;;;;;;;;5073430;28;20032;-77
2023/04/19 00:51:03;;;;;;;12.50;8.43;;;;;;;;;;5075505;23;20038;-79
2023/04/19 00:53:29;;;;;;;12.30;8.90;;;;;;;;;;5017386;28;20086;-79
2023/04/19 00:55:57;;;;;;;13.57;9.60;;;;;;;;;;5018565;28;20058;-78
2023/04/19 00:58:23;;;;;;;11.77;9.27;;;;;;;;;;5034294;28;20120;-78
2023/04/19 01:00:49;;;;;;;12.00;9.60;;;;;;;;;;5018148;28;20074;-76
2023/04/19 01:03:15;;;;;;;12.07;9.40;;;;;;;;;;5021600;28;20034;-77
2023/04/19 01:05:44;;;;;;;14.30;10.67;;;;;;;;;;5016878;28;20037;-78
2023/04/19 01:08:10;;;;;;;11.43;9.27;;;;;;;;;;5017524;28;20030;-78
2023/04/19 01:10:42;;;;;;;13.80;9.70;;;;;;;;;;5032148;28;20263;-78
2023/04/19 01:13:08;;;;;;;11.60;9.17;;;;;;;;;;5032519;28;20019;-78
2023/04/19 01:15:34;;;;;;;16.07;9.40;;;;;;;;;;5017320;28;20318;-78
2023/04/19 01:18:00;;;;;;;11.90;10.07;;;;;;;;;;5015374;28;20026;-79
2023/04/19 01:20:26;;;;;;;11.83;9.27;;;;;;;;;;5015148;28;20026;-80
2023/04/19 01:22:52;;;;;;;13.97;9.63;;;;;;;;;;5018046;28;20239;-78
2023/04/19 01:25:19;;;;;;;12.90;9.57;;;;;;;;;;5033500;28;20026;-77
2023/04/19 01:27:45;;;;;;;11.53;9.30;;;;;;;;;;5032146;28;20537;-78
2023/04/19 01:30:11;;;;;;;11.47;9.67;;;;;;;;;;5033008;28;20305;-78
2023/04/19 01:32:37;;;;;;;10.20;8.63;;;;;;;;;;5019139;28;20046;-76
2023/04/19 01:35:03;;;;;;;11.17;8.70;;;;;;;;;;5019492;28;20086;-77
2023/04/19 01:37:29;;;;;;;11.80;9.20;;;;;;;;;;5016029;28;20034;-79
2023/04/19 01:39:55;;;;;;;12.27;8.93;;;;;;;;;;5031399;28;20038;-78
2023/04/19 01:42:21;;;;;;;12.40;9.93;;;;;;;;;;5019455;28;20078;-78
2023/04/19 01:44:47;;;;;;;13.33;9.53;;;;;;;;;;5032641;28;20026;-79
2023/04/19 01:47:13;;;;;;;11.17;9.07;;;;;;;;;;5019933;28;20068;-77
2023/04/19 01:49:39;;;;;;;13.30;9.20;;;;;;;;;;5021316;28;20014;-78
2023/04/19 01:52:05;;;;;;;11.53;8.83;;;;;;;;;;5030001;28;20116;-80
2023/04/19 01:54:32;;;;;;;11.43;9.00;;;;;;;;;;5033992;28;20189;-77
2023/04/19 01:56:58;;;;;;;14.13;9.63;;;;;;;;;;5015875;28;20037;-78
2023/04/19 01:59:24;;;;;;;13.10;8.80;;;;;;;;;;5013717;28;20034;-81
2023/04/19 02:01:50;;;;;;;10.90;8.70;;;;;;;;;;5029586;28;20011;-77
2023/04/19 02:04:16;;;;;;;12.70;7.97;;;;;;;;;;5033487;28;20034;-76
2023/04/19 02:06:42;;;;;;;11.17;8.27;;;;;;;;;;5034278;28;20026;-81
2023/04/19 02:09:08;;;;;;;12.63;9.47;;;;;;;;;;5014570;28;20046;-79
2023/04/19 02:11:34;;;;;;;12.57;9.53;;;;;;;;;;5015972;28;20034;-77
2023/04/19 02:14:00;;;;;;;14.80;10.60;;;;;;;;;;5015856;28;20035;-77
2023/04/19 02:16:26;;;;;;;13.37;10.23;;;;;;;;;;5017563;28;20026;-79
2023/04/19 02:18:52;;;;;;;12.50;9.93;;;;;;;;;;5013979;28;20037;-78
2023/04/19 02:23:49;;;;;;;16.03;11.33;;;;;;;;;;5061527;28;20060;-78
2023/04/19 02:26:15;;;;;;;17.87;12.20;;;;;;;;;;5060777;28;20041;-78
2023/04/19 02:28:41;;;;;;;15.10;12.00;;;;;;;;;;5049340;28;20029;-78
2023/04/19 02:31:07;;;;;;;18.93;13.87;;;;;;;;;;5060966;28;20032;-78
2023/04/19 02:33:33;;;;;;;19.83;13.73;;;;;;;;;;5057872;28;20024;-78
2023/04/19 02:35:59;;;;;;;20.63;14.43;;;;;;;;;;5061338;28;20056;-78
2023/04/19 02:38:25;;;;;;;21.43;14.60;;;;;;;;;;5042787;28;20052;-78
2023/04/19 02:40:51;;;;;;;22.00;15.67;;;;;;;;;;5044150;28;20030;-78
2023/04/19 02:43:17;;;;;;;21.00;15.60;;;;;;;;;;5045755;28;20030;-79
2023/04/19 02:45:43;;;;;;;18.50;15.43;;;;;;;;;;5052201;28;20009;-78
2023/04/19 02:48:09;;;;;;;24.13;16.20;;;;;;;;;;5052819;28;20025;-78
2023/04/19 02:50:37;;;;;;;19.77;15.30;;;;;;;;;;5060730;28;20041;-78
2023/04/19 02:53:03;;;;;;;19.13;16.50;;;;;;;;;;5061270;28;20021;-78
2023/04/19 02:55:29;;;;;;;23.90;16.33;;;;;;;;;;5060655;28;20031;-79
2023/04/19 02:57:55;;;;;;;20.53;16.07;;;;;;;;;;5045150;28;20025;-79
2023/04/19 03:00:21;;;;;;;23.20;16.33;;;;;;;;;;5060059;28;20034;-78
2023/04/19 03:02:47;;;;;;;21.50;16.20;;;;;;;;;;5062103;28;20053;-78
2023/04/19 03:05:13;;;;;;;21.10;17.03;;;;;;;;;;5064627;28;20041;-78
2023/04/19 03:07:39;;;;;;;26.03;17.07;;;;;;;;;;5066954;28;20041;-78
2023/04/19 03:10:06;;;;;;;23.00;16.53;;;;;;;;;;5064944;28;20095;-78
2023/04/19 03:12:32;;;;;;;22.63;16.77;;;;;;;;;;5056206;28;20025;-78
2023/04/19 03:14:58;;;;;;;21.97;16.30;;;;;;;;;;5057767;28;20031;-78
2023/04/19 03:17:24;;;;;;;22.37;17.47;;;;;;;;;;5065274;28;20017;-78
2023/04/19 03:19:50;;;;;;;21.47;16.33;;;;;;;;;;5049052;28;20026;-78
2023/04/19 03:22:16;;;;;;;27.40;16.73;;;;;;;;;;5065518;28;20060;-78
2023/04/19 03:24:42;;;;;;;18.10;14.73;;;;;;;;;;5065791;28;20078;-78
2023/04/19 03:27:08;;;;;;;21.10;15.30;;;;;;;;;;5066004;28;20033;-78
2023/04/19 03:29:34;;;;;;;21.60;15.90;;;;;;;;;;5066903;28;20030;-78
2023/04/19 03:32:00;;;;;;;21.77;14.33;;;;;;;;;;5066399;28;20093;-78
2023/04/19 03:34:29;;;;;;;20.57;14.70;;;;;;;;;;5047884;28;20013;-79
2023/04/19 03:36:55;;;;;;;18.97;14.03;;;;;;;;;;5061838;28;20028;-78
2023/04/19 03:39:21;;;;;;;23.27;13.50;;;;;;;;;;5057016;28;20052;-78
2023/04/19 03:41:47;;;;;;;18.23;14.23;;;;;;;;;;5064157;28;20088;-78
2023/04/19 03:44:13;;;;;;;21.23;15.23;;;;;;;;;;5064307;28;20056;-78
2023/04/19 03:46:39;;;;;;;18.23;13.67;;;;;;;;;;5062590;28;20022;-78
2023/04/19 03:49:05;;;;;;;20.63;13.97;;;;;;;;;;5063862;28;20357;-78
2023/04/19 03:51:31;;;;;;;20.70;14.00;;;;;;;;;;5062385;28;20040;-78
2023/04/19 03:53:57;;;;;;;18.03;13.50;;;;;;;;;;5064546;28;20060;-78
2023/04/19 03:56:23;;;;;;;17.60;12.47;;;;;;;;;;5064504;28;20028;-78
2023/04/19 03:58:52;;;;;;;16.33;13.40;;;;;;;;;;5049736;28;20045;-78
2023/04/19 04:01:20;;;;;;;18.73;13.17;;;;;;;;;;5066533;28;20025;-78
2023/04/19 04:03:46;;;;;;;17.47;12.67;;;;;;;;;;5064842;28;20014;-78
2023/04/19 04:06:12;;;;;;;16.67;12.63;;;;;;;;;;5061600;28;20025;-78
2023/04/19 04:08:38;;;;;;;17.47;11.83;;;;;;;;;;5049292;28;20085;-80
2023/04/19 04:11:04;;;;;;;17.77;12.70;;;;;;;;;;5063757;28;20017;-78
2023/04/19 04:13:30;;;;;;;18.23;12.57;;;;;;;;;;5111141;23;20033;-77
2023/04/19 04:15:59;;;;;;;15.03;11.90;;;;;;;;;;5062536;28;20040;-78
2023/04/19 04:18:27;;;;;;;17.20;12.70;;;;;;;;;;5046644;28;20112;-79
2023/04/19 04:20:53;;;;;;;15.87;12.13;;;;;;;;;;5066663;28;20070;-77
2023/04/19 04:23:20;;;;;;;17.83;11.73;;;;;;;;;;5053712;28;20017;-78
2023/04/19 04:25:46;;;;;;;15.33;12.30;;;;;;;;;;5062153;28;20025;-78
2023/04/19 04:28:12;;;;;;;16.20;11.77;;;;;;;;;;5050405;28;20033;-78
2023/04/19 04:30:39;;;;;;;15.63;11.30;;;;;;;;;;5064832;28;20073;-78
2023/04/19 04:33:07;;;;;;;15.10;11.33;;;;;;;;;;5048334;28;20022;-78
2023/04/19 04:35:34;;;;;;;17.90;11.67;;;;;;;;;;5048459;28;20020;-78
2023/04/19 04:38:00;;;;;;;19.73;11.50;;;;;;;;;;5047622;28;20041;-78
2023/04/19 04:40:26;;;;;;;17.47;11.67;;;;;;;;;;5046744;28;20025;-78
2023/04/19 04:42:53;;;;;;;15.33;10.50;;;;;;;;;;5065387;28;20051;-79
2023/04/19 04:45:19;;;;;;;15.80;11.40;;;;;;;;;;5047364;28;20128;-78
2023/04/19 04:47:45;;;;;;;17.27;11.50;;;;;;;;;;5046417;28;20024;-78
2023/04/19 04:50:11;;;;;;;15.80;10.43;;;;;;;;;;5064090;28;20021;-78
2023/04/19 04:52:37;;;;;;;15.67;10.97;;;;;;;;;;5045521;28;20025;-78
2023/04/19 04:55:03;;;;;;;17.27;12.03;;;;;;;;;;5063667;28;20044;-78
2023/04/19 04:57:29;;;;;;;17.97;11.00;;;;;;;;;;5061198;28;20017;-77
2023/04/19 04:59:57;;;;;;;15.50;10.83;;;;;;;;;;5045009;28;20240;-78
2023/04/19 05:02:24;;;;;;;17.27;10.17;;;;;;;;;;5050192;28;20017;-78
2023/04/19 05:04:50;;;;;;;13.63;10.67;;;;;;;;;;5060471;28;20029;-78
2023/04/19 05:07:16;;;;;;;16.23;10.77;;;;;;;;;;5060031;28;20214;-78
2023/04/19 05:09:42;;;;;;;16.37;11.23;;;;;;;;;;5061473;28;20018;-78
2023/04/19 05:12:08;;;;;;;15.67;11.80;;;;;;;;;;5063596;28;20084;-78
2023/04/19 05:14:36;;;;;;;20.93;12.47;;;;;;;;;;5062730;28;20215;-78
2023/04/19 05:17:02;;;;;;;14.27;10.67;;;;;;;;;;5054453;28;20017;-78
2023/04/19 05:19:28;;;;;;;15.93;11.07;;;;;;;;;;5044393;28;20157;-78
2023/04/19 05:21:57;;;;;;;14.27;11.63;;;;;;;;;;5053218;28;20025;-78
2023/04/19 05:24:23;;;;;;;14.47;10.47;;;;;;;;;;5062323;28;20038;-78
2023/04/19 05:26:49;;;;;;;16.87;10.93;;;;;;;;;;5059075;28;20028;-78
2023/04/19 05:29:21;;;;;;;13.70;11.03;;;;;;;;;;5065401;28;20025;-78
2023/04/19 05:31:47;;;;;;;17.47;11.00;;;;;;;;;;5056558;28;20024;-78
2023/04/19 05:34:13;;;;;;;15.63;11.20;;;;;;;;;;5048142;28;20034;-77
2023/04/19 05:36:39;;;;;;;16.47;11.83;;;;;;;;;;5052797;28;20112;-78
2023/04/19 05:39:05;;;;;;;16.87;11.40;;;;;;;;;;5060898;28;20041;-78
2023/04/19 05:41:31;;;;;;;17.33;11.00;;;;;;;;;;5060531;28;20030;-78
2023/04/19 05:44:00;;;;;;;15.63;12.10;;;;;;;;;;5063162;28;20029;-77
2023/04/19 05:46:26;;;;;;;17.43;12.20;;;;;;;;;;5052639;28;20032;-78
2023/04/19 05:48:52;;;;;;;17.77;12.13;;;;;;;;;;5055545;28;20101;-78
2023/04/19 05:51:18;;;;;;;20.77;12.10;;;;;;;;;;5048023;28;20017;-78
2023/04/19 05:53:47;;;;;;;16.27;11.90;;;;;;;;;;5044582;28;20056;-78
2023/04/19 05:56:13;;;;;;;20.73;12.70;;;;;;;;;;5047898;28;20037;-78
2023/04/19 05:58:39;;;;;;;17.10;12.73;;;;;;;;;;5047328;28;20057;-78
2023/04/19 06:01:06;;;;;;;20.73;12.70;;;;;;;;;;5051238;28;20063;-78
2023/04/19 06:03:34;;;;;;;16.03;11.17;;;;;;;;;;5061328;28;20025;-78
2023/04/19 06:06:04;;;;;;;18.63;12.47;;;;;;;;;;5052198;28;20010;-78
2023/04/19 06:08:30;;;;;;;17.13;11.90;;;;;;;;;;5048179;28;20101;-78
2023/04/19 06:10:58;;;;;;;14.93;9.97;;;;;;;;;;5061153;28;20029;-78
2023/04/19 06:13:24;;;;;;;15.17;9.20;;;;;;;;;;5061272;28;20013;-78
2023/04/19 06:15:50;;;;;;;14.53;9.23;;;;;;;;;;5060786;28;20009;-78
2023/04/19 06:18:16;;;;;;;12.50;9.03;;;;;;;;;;5062418;28;20040;-78
2023/04/19 06:20:42;;;;;;;11.83;8.30;;;;;;;;;;5045003;28;20018;-79
2023/04/19 06:23:09;;;;;;;13.20;8.73;;;;;;;;;;5061136;28;20019;-78
2023/04/19 06:25:35;;;;;;;15.73;8.47;;;;;;;;;;5046463;28;20024;-78
2023/04/19 06:28:01;;;;;;;13.80;9.13;;;;;;;;;;5047296;28;20028;-79
2023/04/19 06:30:29;;;;;;;11.97;7.50;;;;;;;;;;5044333;28;20028;-78
2023/04/19 06:32:55;;;;;;;13.03;8.23;;;;;;;;;;5044964;28;20017;-80
2023/04/19 06:35:21;;;;;;;14.27;8.47;;;;;;;;;;5061397;28;20040;-79
2023/04/19 06:37:47;;;;;;;10.93;7.90;;;;;;;;;;5044004;28;20163;-80
2023/04/19 06:40:13;;;;;;;13.40;7.80;;;;;;;;;;5062825;28;20010;-80
2023/04/19 06:42:39;;;;;;;15.87;9.83;;;;;;;;;;5065821;28;20017;-78
2023/04/19 06:45:06;;;;;;;12.20;7.43;;;;;;;;;;5064798;28;20060;-78
2023/04/19 06:47:32;;;;;;;12.30;7.53;;;;;;;;;;5048147;28;20048;-80
2023/04/19 06:50:00;;;;;;;9.37;6.63;;;;;;;;;;5063787;28;20025;-78
2023/04/19 06:52:26;;;;;;;8.20;5.87;;;;;;;;;;5066117;28;20021;-78
2023/04/19 06:54:52;;;;;;;8.83;6.00;;;;;;;;;;5047835;28;20040;-78
2023/04/19 06:57:18;;;;;;;10.33;6.27;;;;;;;;;;5065060;28;20035;-78
2023/04/19 06:59:44;;;;;;;9.20;6.57;;;;;;;;;;5066125;28;20029;-80
2023/04/19 07:02:13;;;;;;;9.17;6.83;;;;;;;;;;5047164;28;20093;-78
2023/04/19 07:04:39;;;;;;;10.57;6.53;;;;;;;;;;5065258;28;20022;-78
2023/04/19 07:07:05;;;;;;;11.50;6.73;;;;;;;;;;5068955;28;20033;-78
2023/04/19 07:09:33;;;;;;;10.80;6.30;;;;;;;;;;5046701;28;20036;-78
2023/04/19 07:12:00;;;;;;;10.87;5.93;;;;;;;;;;5058845;28;20017;-78
2023/04/19 07:14:26;;;;;;;9.17;6.50;;;;;;;;;;5065313;28;20032;-79
2023/04/19 07:16:52;;;;;;;8.73;5.70;;;;;;;;;;5048703;28;20124;-78
2023/04/19 07:19:21;;;;;;;7.03;5.43;;;;;;;;;;5052950;28;20025;-79
2023/04/19 07:21:47;;;;;;;9.37;6.93;;;;;;;;;;5066268;28;20014;-77
2023/04/19 07:24:13;;;;;;;10.00;6.30;;;;;;;;;;5062657;28;20102;-77
2023/04/19 07:26:39;;;;;;;9.97;6.33;;;;;;;;;;5058215;28;20021;-77
2023/04/19 07:29:05;;;;;;;9.33;5.80;;;;;;;;;;5048049;28;20053;-78
2023/04/19 07:31:31;;;;;;;7.93;6.23;;;;;;;;;;5050928;28;20029;-79
2023/04/19 07:33:57;;;;;;;7.37;5.23;;;;;;;;;;5061611;28;20047;-77
2023/04/19 07:36:24;;;;;;;8.90;5.90;;;;;;;;;;5055389;28;20089;-79
2023/04/19 07:38:50;;;;;;;8.30;6.00;;;;;;;;;;5063135;28;20057;-77
2023/04/19 07:41:16;;;;;;;8.70;5.90;;;;;;;;;;5050123;28;20029;-77
2023/04/19 07:43:43;;;;;;;7.23;5.93;;;;;;;;;;5066498;28;20022;-77
2023/04/19 07:46:17;;;;;;;7.37;5.27;;;;;;;;;;5064930;28;20052;-79
2023/04/19 07:48:43;;;;;;;7.00;4.90;;;;;;;;;;5063194;28;20013;-78
2023/04/19 07:51:10;;;;;;;12.93;5.57;;;;;;;;;;5047040;28;20018;-81
2023/04/19 07:53:36;;;;;;;8.47;4.70;;;;;;;;;;5056546;28;20032;-79
2023/04/19 07:56:02;;;;;;;10.27;5.37;;;;;;;;;;5049193;28;20073;-78
2023/04/19 07:58:28;;;;;;;7.90;5.53;;;;;;;;;;5045926;28;20035;-78
2023/04/19 08:00:54;;;;;;;8.03;6.17;;;;;;;;;;5046612;28;20045;-78
2023/04/19 08:03:20;;;;;;;9.77;5.00;;;;;;;;;;5059185;28;20089;-78
2023/04/19 08:05:49;;;;;;;8.03;5.43;;;;;;;;;;5063566;28;20041;-78
2023/04/19 08:08:15;;;;;;;11.27;5.43;;;;;;;;;;5054610;28;20053;-78
2023/04/19 08:10:42;;;;;;;8.43;5.97;;;;;;;;;;5060956;28;20103;-80
2023/04/19 08:13:08;;;;;;;7.73;5.87;;;;;;;;;;5055830;28;20029;-80
2023/04/19 08:15:34;;;;;;;10.07;5.40;;;;;;;;;;5058945;28;20033;-80
2023/04/19 08:18:03;;;;;;;8.33;5.53;;;;;;;;;;5043619;28;20033;-80
2023/04/19 08:20:32;;;;;;;9.33;6.10;;;;;;;;;;5054579;28;20013;-78
2023/04/19 08:23:01;;;;;;;7.47;5.70;;;;;;;;;;5062800;28;20026;-80
2023/04/19 08:25:27;;;;;;;5.97;5.07;;;;;;;;;;5048846;28;20048;-78
2023/04/19 08:27:57;;;;;;;7.93;5.23;;;;;;;;;;5064193;28;20014;-77
2023/04/19 08:30:23;;;;;;;8.70;5.67;;;;;;;;;;5047001;28;20084;-78
2023/04/19 08:32:50;;;;;;;10.53;6.63;;;;;;;;;;5049058;28;20044;-79
2023/04/19 08:35:16;;;;;;;9.23;6.50;;;;;;;;;;5063197;28;20033;-80
2023/04/19 08:37:42;;;;;;;10.43;5.50;;;;;;;;;;5065681;28;20037;-80
2023/04/19 08:40:10;;;;;;;7.60;5.67;;;;;;;;;;5043225;28;20060;-79
2023/04/19 08:42:36;;;;;;;14.03;6.10;;;;;;;;;;5061126;28;20021;-78
2023/04/19 08:45:05;;;;;;;10.53;5.70;;;;;;;;;;5044755;28;20041;-79
2023/04/19 08:47:34;;;;;;;7.77;5.53;;;;;;;;;;5048156;28;20028;-80
2023/04/19 08:50:01;;;;;;;8.27;5.47;;;;;;;;;;5064312;28;20041;-77
2023/04/19 08:52:27;;;;;;;7.10;5.70;;;;;;;;;;5063825;28;20022;-82
2023/04/19 08:54:54;;;;;;;8.03;5.00;;;;;;;;;;5047304;28;20065;-77
2023/04/19 08:57:20;;;;;;;13.73;6.03;;;;;;;;;;5062343;28;20017;-80
2023/04/19 08:59:51;;;;;;;9.03;4.83;;;;;;;;;;5059980;28;20036;-78
2023/04/19 09:02:18;;;;;;;7.60;5.40;;;;;;;;;;5055197;28;20030;-77
2023/04/19 09:04:44;;;;;;;8.23;4.67;;;;;;;;;;5062955;28;20025;-78
2023/04/19 09:07:22;;;;;;;9.33;5.23;;;;;;;;;;5052355;28;20029;-78
2023/04/19 09:10:03;;;;;;;10.93;5.97;;;;;;;;;;5060771;28;20095;-80
2023/04/19 09:12:30;;;;;;;10.57;5.00;;;;;;;;;;5051540;28;20037;-80
2023/04/19 09:14:56;;;;;;;8.40;5.40;;;;;;;;;;5044505;28;20040;-80
2023/04/19 09:17:22;;;;;;;7.87;5.10;;;;;;;;;;5046852;28;20059;-77
2023/04/19 09:19:51;;;;;;;6.17;4.57;;;;;;;;;;5061415;28;20081;-78
2023/04/19 09:22:18;;;;;;;9.33;4.77;;;;;;;;;;5062572;28;20028;-77
2023/04/19 09:24:44;;;;;;;8.40;5.53;;;;;;;;;;5052671;28;20017;-78
2023/04/19 09:27:12;;;;;;;7.13;4.87;;;;;;;;;;5048444;28;20033;-78
2023/04/19 09:29:38;;;;;;;5.90;4.10;;;;;;;;;;5044193;28;20048;-78
2023/04/19 09:32:05;;;;;;;6.40;4.60;;;;;;;;;;5044286;28;20120;-78
2023/04/19 09:34:31;;;;;;;6.13;4.43;;;;;;;;;;5051640;28;20246;-78
2023/04/19 09:36:57;;;;;;;6.93;4.00;;;;;;;;;;5060905;28;20429;-79
2023/04/19 09:39:32;;;;;;;8.87;4.63;;;;;;;;;;5061233;28;20025;-78
2023/04/19 09:42:01;;;;;;;8.13;4.70;;;;;;;;;;5062692;28;20021;-78
2023/04/19 09:44:27;;;;;;;9.90;4.10;;;;;;;;;;5058661;28;20029;-79
2023/04/19 09:46:54;;;;;;;7.70;4.50;;;;;;;;;;5045975;28;20017;-79
2023/04/19 09:49:24;;;;;;;9.80;4.50;;;;;;;;;;5061639;28;20021;-77
2023/04/19 09:51:53;;;;;;;10.87;4.60;;;;;;;;;;5057669;28;20032;-76
2023/04/19 09:54:20;;;;;;;14.13;4.67;;;;;;;;;;5056297;28;20029;-77
2023/04/19 09:56:46;;;;;;;5.97;3.90;;;;;;;;;;5054349;28;20033;-77
2023/04/19 09:59:13;;;;;;;6.47;3.80;;;;;;;;;;5061319;28;20112;-79
2023/04/19 10:01:43;;;;;;;8.53;4.63;;;;;;;;;;5059355;28;20024;-77
2023/04/19 10:04:11;;;;;;;5.90;3.83;;;;;;;;;;5059761;28;20025;-77
2023/04/19 10:06:37;;;;;;;9.20;3.80;;;;;;;;;;5060066;28;20009;-77
2023/04/19 10:09:04;;;;;;;6.87;4.20;;;;;;;;;;5043157;28;20223;-78
2023/04/19 10:11:43;;;;;;;5.33;3.83;;;;;;;;;;5046546;28;20080;-77
2023/04/19 10:14:10;;;;;;;8.00;3.70;;;;;;;;;;5059412;28;20045;-77
2023/04/19 10:16:36;;;;;;;7.57;3.80;;;;;;;;;;5058141;28;20028;-78
2023/04/19 10:19:07;;;;;;;8.07;3.90;;;;;;;;;;5059500;28;20037;-78
2023/04/19 10:21:34;;;;;;;7.70;4.43;;;;;;;;;;5058156;28;20013;-77
2023/04/19 10:24:00;;;;;;;6.93;3.77;;;;;;;;;;5060165;28;20029;-77
2023/04/19 10:26:27;;;;;;;7.07;3.60;;;;;;;;;;5059021;28;20033;-77
2023/04/19 10:28:56;;;;;;;7.37;3.30;;;;;;;;;;5053014;28;20010;-76
2023/04/19 10:31:24;;;;;;;6.93;3.90;;;;;;;;;;5059608;28;20037;-77
2023/04/19 10:33:50;;;;;;;4.33;2.93;;;;;;;;;;5062077;28;20081;-78
2023/04/19 10:36:17;;;;;;;6.53;3.30;;;;;;;;;;5045516;28;20041;-78
2023/04/19 10:38:43;;;;;;;5.03;3.60;;;;;;;;;;5050834;28;20037;-79
2023/04/19 10:41:15;;;;;;;5.43;3.53;;;;;;;;;;5044369;28;20056;-77
2023/04/19 10:43:57;;;;;;;9.43;3.95;;;;;;;;;;5062768;28;20028;-77
2023/04/19 10:46:27;;;;;;;4.97;3.10;;;;;;;;;;5058633;28;20017;-78
2023/04/19 10:48:53;;;;;;;7.17;3.43;;;;;;;;;;5061905;28;20040;-77
2023/04/19 10:51:23;;;;;;;4.43;3.27;;;;;;;;;;5054066;28;20052;-80
2023/04/19 10:54:00;;;;;;;9.63;3.87;;;;;;;;;;5060123;28;20126;-78
2023/04/19 10:56:32;;;;;;;5.10;3.23;;;;;;;;;;5059806;28;20033;-79
2023/04/19 10:59:09;;;;;;;5.38;3.03;;;;;;;;;;5060549;28;20052;-80
2023/04/19 11:01:38;;;;;;;9.97;3.47;;;;;;;;;;5041880;28;20105;-80
2023/04/19 11:04:05;;;;;;;8.87;3.60;;;;;;;;;;5044790;28;20077;-80
2023/04/19 11:06:31;;;;;;;8.70;3.40;;;;;;;;;;5041928;28;20025;-77
2023/04/19 11:08:57;;;;;;;4.60;2.97;;;;;;;;;;5063195;28;20025;-78
2023/04/19 11:11:26;;;;;;;13.27;4.00;;;;;;;;;;5053463;28;20025;-78
2023/04/19 11:13:56;;;;;;;6.53;3.23;;;;;;;;;;5045183;28;20024;-79
2023/04/19 11:16:22;;;;;;;4.87;3.30;;;;;;;;;;5046832;28;20029;-78
2023/04/19 11:18:49;;;;;;;7.03;3.17;;;;;;;;;;5060126;28;20064;-79
2023/04/19 11:21:17;;;;;;;11.97;3.50;;;;;;;;;;5043448;28;20047;-78
2023/04/19 11:23:46;;;;;;;4.90;3.30;;;;;;;;;;5042133;28;20215;-78
2023/04/19 11:26:12;;;;;;;5.50;2.90;;;;;;;;;;5050226;28;20029;-77
2023/04/19 11:28:39;;;;;;;5.37;3.17;;;;;;;;;;5047099;28;20084;-78
2023/04/19 11:31:05;;;;;;;5.00;3.40;;;;;;;;;;5067244;28;20048;-79
2023/04/19 11:33:35;;;;;;;6.40;2.47;;;;;;;;;;5058731;28;20021;-76
2023/04/19 11:36:01;;;;;;;4.83;2.60;;;;;;;;;;5050200;28;20005;-79
2023/04/19 11:38:30;;;;;;;6.37;2.60;;;;;;;;;;5065531;28;20051;-76
2023/04/19 11:41:04;;;;;;;6.37;2.53;;;;;;;;;;5065456;28;20032;-78
2023/04/19 11:43:36;;;;;;;4.50;2.43;;;;;;;;;;5067070;28;20025;-78
2023/04/19 11:46:06;;;;;;;3.92;2.72;;;;;;;;;;5063371;28;20107;-78
2023/04/19 11:48:33;;;;;;;5.47;2.80;;;;;;;;;;5055346;28;20025;-78
2023/04/19 11:50:59;;;;;;;3.00;2.27;;;;;;;;;;5048613;28;20025;-78
2023/04/19 11:53:29;;;;;;;3.97;2.73;;;;;;;;;;5063821;28;20028;-78
2023/04/19 11:55:56;;;;;;;4.20;2.07;;;;;;;;;;5049505;28;20034;-78
2023/04/19 11:58:28;;;;;;;5.13;1.90;;;;;;;;;;5052093;28;20030;-78
2023/04/19 12:00:54;;;;;;;8.77;2.10;;;;;;;;;;5060039;28;20031;-78
2023/04/19 12:03:23;;;;;;;5.60;2.30;;;;;;;;;;5047878;28;20025;-78
2023/04/19 12:05:56;;;;;;;6.43;1.90;;;;;;;;;;5054456;28;20037;-78
2023/04/19 12:08:35;;;;;;;5.75;2.70;;;;;;;;;;5064759;28;20035;-79
2023/04/19 12:11:02;;;;;;;5.47;2.23;;;;;;;;;;5053442;28;20037;-78
2023/04/19 12:13:30;;;;;;;2.83;1.90;;;;;;;;;;5046625;28;20036;-78
2023/04/19 12:15:56;;;;;;;4.07;1.90;;;;;;;;;;5050037;28;20021;-78
2023/04/19 12:18:22;;;;;;;4.53;2.10;;;;;;;;;;5062780;28;20048;-78
2023/04/19 12:20:48;;;;;;;4.03;2.30;;;;;;;;;;5047800;28;20025;-77
2023/04/19 12:23:15;;;;;;;3.60;1.60;;;;;;;;;;5063392;28;20027;-78
2023/04/19 12:25:41;;;;;;;3.63;1.70;;;;;;;;;;5062468;28;20033;-78
2023/04/19 12:28:08;;;;;;;4.23;1.90;;;;;;;;;;5046163;28;20029;-78
2023/04/19 12:30:37;;;;;;;4.83;2.63;;;;;;;;;;5052420;28;20021;-78
2023/04/19 12:33:04;;;;;;;9.83;2.50;;;;;;;;;;5061904;28;20025;-78
2023/04/19 12:35:30;;;;;;;4.93;2.00;;;;;;;;;;5062901;28;20022;-77
2023/04/19 12:37:58;;;;;;;3.50;1.90;;;;;;;;;;5063350;28;21199;-77
2023/04/19 12:40:25;;;;;;;4.73;1.97;;;;;;;;;;5065037;28;20036;-78
2023/04/19 12:42:51;;;;;;;2.57;2.00;;;;;;;;;;5048213;28;20025;-78
2023/04/19 12:45:18;;;;;;;8.57;2.30;;;;;;;;;;5062083;28;20039;-78
2023/04/19 12:47:46;;;;;;;3.73;1.90;;;;;;;;;;5048339;28;20096;-78
2023/04/19 12:53:45;;;;;;;6.60;2.50;;;;;;;;;;5012101;28;20014;-78
2023/04/19 12:56:44;;;;;;;;;;;;;;;;;;;;;
2023/04/19 12:59:54;;;;;;;3.10;1.97;;;;;;;;;;5063148;28;20052;-78
2023/04/19 13:02:50;;;;;;;;;;;;;;;;;;;;;
2023/04/19 13:06:26;;;;;;;5.40;2.00;;;;;;;;;;5060215;28;20060;-78
2023/04/19 13:27:50;;;;;;;3.67;2.20;;;;;;;;;;5033700;28;20017;-79
2023/04/19 13:30:14;;;;;;;3.78;1.73;;;;;;;;;;5048627;28;20291;-78
2023/04/19 13:32:40;;;;;;;2.30;2.10;;;;;;;;;;5048833;28;20022;-78
2023/04/19 13:35:06;;;;;;;2.85;2.00;;;;;;;;;;5060698;28;20068;-78
2023/04/19 13:37:32;;;;;;;8.00;2.47;;;;;;;;;;5050077;28;20025;-78
2023/04/19 13:39:58;;;;;;;4.63;2.17;;;;;;;;;;5062298;28;20097;-78
2023/04/19 13:42:27;;;;;;;6.50;2.17;;;;;;;;;;5043699;28;20013;-78
2023/04/19 13:44:53;;;;;;;3.08;2.10;;;;;;;;;;5059824;28;20016;-78
2023/04/19 13:47:19;;;;;;;6.55;2.03;;;;;;;;;;5044531;28;20060;-78
2023/04/19 13:49:50;;;;;;;3.13;1.75;;;;;;;;;;5044579;28;20013;-79
2023/04/19 13:52:17;;;;;;;4.97;2.10;;;;;;;;;;5063088;28;20060;-78
2023/04/19 13:54:43;;;;;;;5.75;2.25;;;;;;;;;;5045462;28;20017;-78
2023/04/19 13:57:11;;;;;;;6.90;2.20;;;;;;;;;;5044170;28;20048;-78
2023/04/19 13:59:37;;;;;;;4.97;2.00;;;;;;;;;;5060142;28;20021;-78
2023/04/19 14:02:03;;;;;;;4.53;2.33;;;;;;;;;;5060479;28;20018;-78
2023/04/19 14:04:29;;;;;;;3.03;2.13;;;;;;;;;;5061051;28;20033;-77
2023/04/19 14:06:56;;;;;;;7.18;2.30;;;;;;;;;;5061282;28;20026;-78
2023/04/19 14:09:22;;;;;;;5.57;2.33;;;;;;;;;;5058289;28;20029;-79
2023/04/19 14:11:48;;;;;;;5.85;2.10;;;;;;;;;;5058271;28;20031;-77
2023/04/19 14:14:14;;;;;;;3.03;1.92;;;;;;;;;;5043114;28;20048;-78
2023/04/19 14:16:40;;;;;;;4.18;1.80;;;;;;;;;;5059972;28;20021;-78
2023/04/19 14:19:06;;;;;;;4.53;2.08;;;;;;;;;;5055440;28;20075;-77
2023/04/19 14:21:33;;;;;;;5.90;2.20;;;;;;;;;;5042064;28;20017;-78
2023/04/19 14:23:59;;;;;;;7.93;2.38;;;;;;;;;;5047850;28;20037;-78
2023/04/19 14:26:31;;;;;;;5.32;2.47;;;;;;;;;;5050379;28;20040;-78
2023/04/19 14:28:59;;;;;;;6.30;2.67;;;;;;;;;;5051775;28;20044;-79
2023/04/19 14:31:25;;;;;;;4.20;2.42;;;;;;;;;;5060220;28;20092;-77
2023/04/19 14:33:51;;;;;;;5.05;2.78;;;;;;;;;;5053647;28;20018;-78
2023/04/19 14:36:17;;;;;;;6.40;3.00;;;;;;;;;;5059757;28;20115;-78
2023/04/19 14:38:43;;;;;;;10.35;2.67;;;;;;;;;;5058873;28;20043;-78
2023/04/19 14:41:09;;;;;;;4.68;2.80;;;;;;;;;;5043365;28;20025;-78
2023/04/19 14:43:35;;;;;;;9.27;2.92;;;;;;;;;;5042645;28;20025;-78
2023/04/19 14:46:01;;;;;;;7.57;2.97;;;;;;;;;;5055894;28;20053;-79
2023/04/19 14:48:27;;;;;;;4.90;2.30;;;;;;;;;;5043916;28;20034;-79
2023/04/19 14:50:53;;;;;;;3.30;2.38;;;;;;;;;;5044804;28;20029;-78
2023/04/19 14:53:19;;;;;;;6.93;2.30;;;;;;;;;;5058337;28;20029;-78
2023/04/19 14:55:45;;;;;;;3.97;2.70;;;;;;;;;;5041215;28;20028;-78
2023/04/19 14:58:11;;;;;;;5.07;3.00;;;;;;;;;;5041265;28;20051;-77
2023/04/19 15:00:37;;;;;;;5.25;2.83;;;;;;;;;;5060587;28;20021;-77
2023/04/19 15:03:04;;;;;;;3.90;2.17;;;;;;;;;;5061131;28;20029;-76